Big Bear Station Historical Data
Daily Summary for November 12, 2017 Units:  English    Metric   Both
« Previous Day
Next Day »
Daily Weekly Monthly Yearly Custom
  High: Low: Average:
Temperature: 60.4 °F 36.3 °F 46.9 °F
Dew Point: 36.7 °F -7.2 °F 21 °F
Humidity: 77 % 10 % 42 %
Wind Speed: 5.3 mph 0.0 mph 1.1 mph
Wind Gust: -999.0 mph - -
Wind:- - WSW
Pressure: 30.23 in 30.18 in -
Precipitation: 0.00 in    
Historical Graphs
 
 
Tabular Data for November 12, 2017
Time Temperature Dew Point Pressure Wind Wind Speed Wind Gust Humidity Rainfall Rate (Hourly)
00:08 36.9 °F 28.4 °F 30.18 in Calm   -999.0 mph 71 % 0 in
00:23 37.0 °F 28.8 °F 30.18 in Calm   -999.0 mph 72 % 0 in
00:39 36.9 °F 30.4 °F 30.19 in Calm   -999.0 mph 77 % 0 in
00:54 36.7 °F 29.8 °F 30.19 in Calm   -999.0 mph 76 % 0 in
01:09 36.3 °F 29.5 °F 30.19 in Calm   -999.0 mph 76 % 0 in
01:24 36.3 °F 29.1 °F 30.18 in Calm   -999.0 mph 75 % 0 in
01:39 36.3 °F 28.1 °F 30.18 in Calm   -999.0 mph 72 % 0 in
01:55 37.0 °F 29.2 °F 30.18 in Calm   -999.0 mph 73 % 0 in
02:10 36.9 °F 28.4 °F 30.18 in Calm   -999.0 mph 71 % 0 in
02:25 36.9 °F 27.3 °F 30.18 in Calm   -999.0 mph 68 % 0 in
02:40 37.2 °F 30.0 °F 30.18 in Calm   -999.0 mph 75 % 0 in
02:56 37.0 °F 28.5 °F 30.18 in Calm   -999.0 mph 71 % 0 in
03:11 37.2 °F 27.3 °F 30.18 in Calm   -999.0 mph 67 % 0 in
03:26 37.0 °F 27.4 °F 30.18 in Calm   -999.0 mph 68 % 0 in
03:41 37.6 °F 27.3 °F 30.18 in Calm   -999.0 mph 66 % 0 in
03:56 37.8 °F 27.5 °F 30.18 in Calm   -999.0 mph 66 % 0 in
04:12 38.1 °F 27.4 °F 30.18 in Calm   -999.0 mph 65 % 0 in
04:27 37.9 °F 29.3 °F 30.19 in Calm   -999.0 mph 71 % 0 in
04:42 39.4 °F 28.2 °F 30.19 in Calm   -999.0 mph 64 % 0 in
04:57 39.4 °F 29.7 °F 30.19 in Calm   -999.0 mph 68 % 0 in
05:12 39.2 °F 29.9 °F 30.19 in Calm   -999.0 mph 69 % 0 in
05:28 39.2 °F 31.9 °F 30.19 in Calm   -999.0 mph 75 % 0 in
05:43 39.6 °F 31.3 °F 30.19 in Calm   -999.0 mph 72 % 0 in
05:58 39.4 °F 27.8 °F 30.20 in Calm   -999.0 mph 63 % 0 in
06:13 39.4 °F 27.5 °F 30.20 in Calm   -999.0 mph 62 % 0 in
06:28 39.2 °F 27.7 °F 30.20 in Calm   -999.0 mph 63 % 0 in
06:44 39.0 °F 28.2 °F 30.20 in Calm   -999.0 mph 65 % 0 in
06:59 39.7 °F 30.7 °F 30.21 in Calm   -999.0 mph 70 % 0 in
07:14 40.3 °F 30.6 °F 30.21 in Calm   -999.0 mph 68 % 0 in
07:29 41.2 °F 31.1 °F 30.22 in Calm   -999.0 mph 67 % 0 in
07:44 42.1 °F 34.1 °F 30.22 in Calm   -999.0 mph 73 % 0 in
08:00 43.3 °F 34.9 °F 30.22 in Calm   -999.0 mph 72 % 0 in
08:15 44.6 °F 35.8 °F 30.22 in Calm   -999.0 mph 71 % 0 in
08:30 45.9 °F 36.7 °F 30.22 in Calm   -999.0 mph 70 % 0 in
08:45 47.7 °F 36.5 °F 30.22 in Calm   -999.0 mph 65 % 0 in
09:01 50.4 °F 33.4 °F 30.22 in Calm   -999.0 mph 52 % 0 in
09:16 52.5 °F 32.3 °F 30.22 in Calm   -999.0 mph 46 % 0 in
09:31 54.3 °F 31.7 °F 30.22 in NW 2.7 mph -999.0 mph 42 % 0 in
09:46 55.6 °F 31.6 °F 30.22 in Calm   -999.0 mph 40 % 0 in
10:01 56.5 °F 29.9 °F 30.22 in NW 3.7 mph -999.0 mph 36 % 0 in
10:17 57.4 °F 28.5 °F 30.21 in ENE 2.7 mph -999.0 mph 33 % 0 in
10:32 58.6 °F 29.6 °F 30.22 in NNW 1.1 mph -999.0 mph 33 % 0 in
10:47 59.0 °F 28.4 °F 30.21 in NW 3.2 mph -999.0 mph 31 % 0 in
11:02 60.1 °F 28.5 °F 30.21 in WNW 1.1 mph -999.0 mph 30 % 0 in
11:17 59.7 °F 27.4 °F 30.20 in NNW 2.7 mph -999.0 mph 29 % 0 in
11:33 60.1 °F 23.2 °F 30.20 in WNW 5.3 mph -999.0 mph 24 % 0 in
11:48 60.4 °F 25.3 °F 30.19 in NW 2.7 mph -999.0 mph 26 % 0 in
12:03 58.6 °F 21.9 °F 30.20 in ESE 5.3 mph -999.0 mph 24 % 0 in
12:18 57.9 °F 27.4 °F 30.19 in NE 2.7 mph -999.0 mph 31 % 0 in
12:33 58.5 °F 29.5 °F 30.19 in North 2.7 mph -999.0 mph 33 % 0 in
12:49 58.1 °F 29.9 °F 30.19 in West 4.7 mph -999.0 mph 34 % 0 in
13:04 57.4 °F 26.2 °F 30.18 in Calm   -999.0 mph 30 % 0 in
13:20 56.5 °F 27.7 °F 30.18 in Calm   -999.0 mph 33 % 0 in
13:35 55.8 °F 27.8 °F 30.18 in NNW 5.3 mph -999.0 mph 34 % 0 in
13:50 55.2 °F 28.0 °F 30.18 in NW 2.2 mph -999.0 mph 35 % 0 in
14:05 55.2 °F 25.8 °F 30.19 in NW 2.7 mph -999.0 mph 32 % 0 in
14:21 55.8 °F 26.4 °F 30.19 in North 4.7 mph -999.0 mph 32 % 0 in
14:36 55.2 °F 25.8 °F 30.19 in NE 2.7 mph -999.0 mph 32 % 0 in
14:51 54.7 °F 21.3 °F 30.19 in East 2.7 mph -999.0 mph 27 % 0 in
15:06 54.9 °F 21.5 °F 30.19 in NE 2.7 mph -999.0 mph 27 % 0 in
15:21 54.1 °F 19.0 °F 30.19 in WNW 3.7 mph -999.0 mph 25 % 0 in
15:37 53.6 °F 18.6 °F 30.19 in North 3.2 mph -999.0 mph 25 % 0 in
15:52 52.9 °F 18.0 °F 30.19 in NW 2.2 mph -999.0 mph 25 % 0 in
16:07 52.3 °F 18.4 °F 30.19 in NW 2.2 mph -999.0 mph 26 % 0 in
16:23 51.6 °F 21.9 °F 30.19 in NW 4.2 mph -999.0 mph 31 % 0 in
16:38 50.9 °F 21.3 °F 30.20 in North 2.2 mph -999.0 mph 31 % 0 in
16:53 50.2 °F 20.7 °F 30.20 in WNW 1.7 mph -999.0 mph 31 % 0 in
17:08 49.8 °F 21.8 °F 30.20 in Calm   -999.0 mph 33 % 0 in
17:23 49.5 °F 22.3 °F 30.20 in Calm   -999.0 mph 34 % 0 in
17:39 49.1 °F 21.2 °F 30.21 in SSW 1.1 mph -999.0 mph 33 % 0 in
17:54 48.6 °F 20.0 °F 30.21 in South 1.7 mph -999.0 mph 32 % 0 in
18:09 48.4 °F 18.4 °F 30.21 in South 1.7 mph -999.0 mph 30 % 0 in
18:24 48.4 °F 15.9 °F 30.22 in South 1.7 mph -999.0 mph 27 % 0 in
18:39 48.0 °F 11.9 °F 30.22 in South 1.1 mph -999.0 mph 23 % 0 in
18:55 47.7 °F 9.6 °F 30.22 in Calm   -999.0 mph 21 % 0 in
19:10 46.9 °F 13.8 °F 30.22 in South 1.7 mph -999.0 mph 26 % 0 in
19:25 47.5 °F 6.0 °F 30.22 in South 1.7 mph -999.0 mph 18 % 0 in
19:40 47.1 °F 3.1 °F 30.22 in Calm   -999.0 mph 16 % 0 in
19:55 47.5 °F 2.1 °F 30.23 in South 2.7 mph -999.0 mph 15 % 0 in
20:11 47.3 °F -2.8 °F 30.23 in Calm   -999.0 mph 12 % 0 in
20:26 47.1 °F -4.8 °F 30.23 in Calm   -999.0 mph 11 % 0 in
20:42 47.5 °F -2.7 °F 30.23 in Calm   -999.0 mph 12 % 0 in
20:57 46.9 °F -3.1 °F 30.23 in Calm   -999.0 mph 12 % 0 in
21:12 47.1 °F -4.8 °F 30.23 in Calm   -999.0 mph 11 % 0 in
21:27 46.8 °F -3.2 °F 30.23 in Calm   -999.0 mph 12 % 0 in
21:42 46.6 °F -7.2 °F 30.23 in Calm   -999.0 mph 10 % 0 in
21:58 46.9 °F -1.5 °F 30.23 in Calm   -999.0 mph 13 % 0 in
22:13 46.4 °F -1.9 °F 30.23 in Calm   -999.0 mph 13 % 0 in
22:28 46.0 °F -2.2 °F 30.23 in South 1.7 mph -999.0 mph 13 % 0 in
22:43 45.3 °F -1.2 °F 30.23 in Calm   -999.0 mph 14 % 0 in
22:59 44.6 °F -0.3 °F 30.23 in South 1.7 mph -999.0 mph 15 % 0 in
23:14 43.9 °F -2.3 °F 30.23 in South 1.7 mph -999.0 mph 14 % 0 in
23:29 43.5 °F -2.6 °F 30.23 in Calm   -999.0 mph 14 % 0 in
23:44 42.8 °F -0.4 °F 30.23 in Calm   -999.0 mph 16 % 0 in
23:59 42.3 °F 0.5 °F 30.23 in SSE 1.7 mph -999.0 mph 17 % 0 in
Big Bear CA Weather
Compliments of Weather Underground - 1.5 mb